Remontnoe, Russia
Current Conditions -  °F | °C
As of 7:00 PM on Monday 20 Oct 2014 (Local Time) from URWI Reporting Station
Clear Clear  
Wind Chill: 36°   Ceiling: Unl
Heat Index: 43°   Visibility: 6mi
Dew Point: 34°   Wind: 13mph
Humidity: 70%   Direction: 210°SSW
Pressure: 30"   Gusts: NA
Location:  46.57°N, 43.67°E
Report Text: URWI 201600Z 21006MPS CAVOK 06/01 Q1016 NOSIG
Loading
Personal Weather Stations






























Interactive Weather Map
Tropical Storm Tracking
New forecast layout! Learn more

10-Day Weather Forecast

Advertisements
Track Severe Weather on mobile